createdAt,value
2022-12-13T00:01:50.398Z,-3.10
2022-12-13T00:04:18.236Z,-3.10
2022-12-13T00:06:45.236Z,-3.10
2022-12-13T00:09:14.129Z,-3.10
2022-12-13T00:11:40.962Z,-3.10
2022-12-13T00:14:07.875Z,-3.10
2022-12-13T00:16:34.784Z,-3.10
2022-12-13T00:19:01.668Z,-3.10
2022-12-13T00:21:32.638Z,-3.10
2022-12-13T00:24:00.257Z,-3.10
2022-12-13T00:26:29.578Z,-3.20
2022-12-13T00:28:56.623Z,-3.10
2022-12-13T00:31:56.732Z,-3.20
2022-12-13T00:34:11.425Z,-3.20
2022-12-13T00:36:38.229Z,-3.20
2022-12-13T00:39:05.053Z,-3.30
2022-12-13T00:41:33.954Z,-3.30
2022-12-13T00:44:02.388Z,-3.30
2022-12-13T00:46:29.936Z,-3.30
2022-12-13T00:48:58.963Z,-3.40
2022-12-13T00:51:27.658Z,-3.40
2022-12-13T00:53:54.864Z,-3.50
2022-12-13T00:56:25.544Z,-3.50
2022-12-13T00:58:53.160Z,-3.50
2022-12-13T01:01:28.167Z,-3.50
2022-12-13T01:03:57.056Z,-3.50
2022-12-13T01:06:29.208Z,-3.50
2022-12-13T01:08:56.112Z,-3.50
2022-12-13T01:11:23.691Z,-3.50
2022-12-13T01:13:50.498Z,-3.50
2022-12-13T01:16:18.653Z,-3.60
2022-12-13T01:18:46.066Z,-3.60
2022-12-13T01:21:17.959Z,-3.60
2022-12-13T01:23:45.620Z,-3.60
2022-12-13T01:26:14.805Z,-3.60
2022-12-13T01:28:44.111Z,-3.60
2022-12-13T01:31:14.779Z,-3.60
2022-12-13T01:33:42.341Z,-3.70
2022-12-13T01:36:12.201Z,-3.70
2022-12-13T01:38:38.963Z,-3.70
2022-12-13T01:41:17.148Z,-3.70
2022-12-13T01:43:44.888Z,-3.70
2022-12-13T01:46:14.593Z,-3.70
2022-12-13T01:48:50.595Z,-3.70
2022-12-13T01:51:19.710Z,-3.70
2022-12-13T01:53:47.352Z,-3.80
2022-12-13T01:56:30.686Z,-3.80
2022-12-13T01:58:58.480Z,-3.80
2022-12-13T02:01:25.592Z,-3.90
2022-12-13T02:03:52.396Z,-3.90
2022-12-13T02:06:37.116Z,-3.90
2022-12-13T02:09:06.116Z,-3.80
2022-12-13T02:11:36.132Z,-3.80
2022-12-13T02:14:03.578Z,-3.80
2022-12-13T02:16:59.582Z,-3.80
2022-12-13T02:19:41.697Z,-3.80
2022-12-13T02:22:26.648Z,-3.90
2022-12-13T02:25:08.078Z,-3.90
2022-12-13T02:27:53.588Z,-3.90
2022-12-13T02:30:45.466Z,-3.90
2022-12-13T02:33:36.886Z,-3.90
2022-12-13T02:36:12.702Z,-4.00
2022-12-13T02:38:49.905Z,-3.90
2022-12-13T02:41:27.282Z,-4.00
2022-12-13T02:44:01.212Z,-4.00
2022-12-13T02:46:30.602Z,-4.00
2022-12-13T02:48:58.947Z,-4.00
2022-12-13T02:51:26.960Z,-4.00
2022-12-13T02:53:53.744Z,-4.00
2022-12-13T02:56:20.578Z,-4.00
2022-12-13T02:58:53.843Z,-4.00
2022-12-13T03:01:29.065Z,-4.00
2022-12-13T03:04:13.530Z,-4.00
2022-12-13T03:06:56.891Z,-4.10
2022-12-13T03:09:45.861Z,-4.10
2022-12-13T03:12:56.640Z,-4.10
2022-12-13T03:15:37.058Z,-4.10
2022-12-13T03:18:18.127Z,-4.10
2022-12-13T03:20:50.187Z,-4.10
2022-12-13T03:23:18.475Z,-4.10
2022-12-13T03:25:46.361Z,-4.10
2022-12-13T03:28:13.345Z,-4.20
2022-12-13T03:30:40.141Z,-4.10
2022-12-13T03:33:07.005Z,-4.20
2022-12-13T03:35:45.082Z,-4.20
2022-12-13T03:38:21.747Z,-4.20
2022-12-13T03:40:51.110Z,-4.20
2022-12-13T03:43:22.202Z,-4.30
2022-12-13T03:45:53.316Z,-4.30
2022-12-13T03:48:22.407Z,-4.30
2022-12-13T03:50:54.349Z,-4.30
2022-12-13T03:53:33.541Z,-4.30
2022-12-13T03:56:03.111Z,-4.30
2022-12-13T03:58:35.764Z,-4.30
2022-12-13T04:01:10.343Z,-4.30
2022-12-13T04:03:37.850Z,-4.40
2022-12-13T04:06:05.206Z,-4.40
2022-12-13T04:08:32.611Z,-4.40
2022-12-13T04:10:59.472Z,-4.40
2022-12-13T04:13:35.157Z,-4.40
2022-12-13T04:16:03.134Z,-4.40
2022-12-13T04:18:30.112Z,-4.40
2022-12-13T04:20:58.229Z,-4.40
2022-12-13T04:23:25.071Z,-4.40
2022-12-13T04:25:51.890Z,-4.40
2022-12-13T04:28:21.559Z,-4.40
2022-12-13T04:30:54.122Z,-4.50
2022-12-13T04:33:22.339Z,-4.50
2022-12-13T04:35:50.242Z,-4.50
2022-12-13T04:38:17.045Z,-4.50
2022-12-13T04:40:43.798Z,-4.50
2022-12-13T04:43:10.732Z,-4.50
2022-12-13T04:45:37.604Z,-4.50
2022-12-13T04:48:04.839Z,-4.50
2022-12-13T04:50:31.575Z,-4.60
2022-12-13T04:52:58.454Z,-4.50
2022-12-13T04:55:25.249Z,-4.60
2022-12-13T04:57:52.524Z,-4.60
2022-12-13T05:00:21.210Z,-4.60
2022-12-13T05:02:48.037Z,-4.60
2022-12-13T05:05:15.241Z,-4.60
2022-12-13T05:07:43.076Z,-4.60
2022-12-13T05:10:11.265Z,-4.60
2022-12-13T05:12:38.058Z,-4.60
2022-12-13T05:15:05.800Z,-4.60
2022-12-13T05:17:32.660Z,-4.60
2022-12-13T05:19:59.444Z,-4.70
2022-12-13T05:22:26.732Z,-4.70
2022-12-13T05:24:53.705Z,-4.70
2022-12-13T05:27:25.575Z,-4.70
2022-12-13T05:30:03.669Z,-4.70
2022-12-13T05:32:43.692Z,-4.70
2022-12-13T05:35:22.928Z,-4.70
2022-12-13T05:37:55.004Z,-4.70
2022-12-13T05:40:26.921Z,-4.70
2022-12-13T05:43:01.363Z,-4.80
2022-12-13T05:45:30.096Z,-4.80
2022-12-13T05:47:57.002Z,-4.80
2022-12-13T05:50:24.119Z,-4.80
2022-12-13T05:52:51.415Z,-4.80
2022-12-13T05:55:18.650Z,-4.80
2022-12-13T05:57:50.537Z,-4.80
2022-12-13T06:00:29.783Z,-4.80
2022-12-13T06:03:00.947Z,-4.90
2022-12-13T06:05:29.791Z,-4.80
2022-12-13T06:07:58.190Z,-4.90
2022-12-13T06:10:34.688Z,-4.90
2022-12-13T06:13:22.177Z,-4.90
2022-12-13T06:16:01.382Z,-4.90
2022-12-13T06:18:30.557Z,-4.90
2022-12-13T06:21:01.614Z,-4.90
2022-12-13T06:23:30.787Z,-4.90
2022-12-13T06:25:57.812Z,-4.90
2022-12-13T06:28:24.622Z,-4.90
2022-12-13T06:30:52.529Z,-4.90
2022-12-13T06:33:23.440Z,-4.90
2022-12-13T06:35:52.651Z,-4.90
2022-12-13T06:38:31.541Z,-4.90
2022-12-13T06:41:17.123Z,-4.90
2022-12-13T06:43:48.210Z,-4.90
2022-12-13T06:46:15.717Z,-4.90
2022-12-13T06:48:42.846Z,-4.90
2022-12-13T06:51:10.222Z,-4.90
2022-12-13T06:53:38.673Z,-4.90
2022-12-13T06:56:07.120Z,-4.90
2022-12-13T06:58:34.812Z,-4.90
2022-12-13T07:01:15.171Z,-4.90
2022-12-13T07:03:51.777Z,-4.90
2022-12-13T07:06:20.510Z,-4.90
2022-12-13T07:08:53.822Z,-4.90
2022-12-13T07:11:24.007Z,-5.00
2022-12-13T07:13:51.561Z,-5.00
2022-12-13T07:16:18.745Z,-4.90
2022-12-13T07:18:45.560Z,-5.00
2022-12-13T07:21:22.188Z,-5.00
2022-12-13T07:23:55.115Z,-5.00
2022-12-13T07:26:22.787Z,-5.00
2022-12-13T07:28:54.770Z,-5.00
2022-12-13T07:31:22.751Z,-5.00
2022-12-13T07:33:50.067Z,-5.00
2022-12-13T07:36:19.785Z,-5.00
2022-12-13T07:38:55.028Z,-5.00
2022-12-13T07:41:23.176Z,-5.00
2022-12-13T07:43:55.092Z,-5.00
2022-12-13T07:46:33.099Z,-5.00
2022-12-13T07:49:04.702Z,-5.00
2022-12-13T07:51:35.927Z,-5.00
2022-12-13T07:54:06.313Z,-5.00
2022-12-13T07:56:34.787Z,-5.10
2022-12-13T07:59:01.698Z,-5.00
2022-12-13T08:01:29.261Z,-5.00
2022-12-13T08:03:56.453Z,-5.00
2022-12-13T08:06:23.419Z,-5.00
2022-12-13T08:08:51.278Z,-5.00
2022-12-13T08:11:18.165Z,-5.00
2022-12-13T08:13:45.068Z,-4.90
2022-12-13T08:16:28.329Z,-4.90
2022-12-13T08:19:01.825Z,-4.90
2022-12-13T08:21:54.630Z,-5.00
2022-12-13T08:24:23.947Z,-4.90
2022-12-13T08:26:50.989Z,-4.90
2022-12-13T08:29:22.323Z,-4.90
2022-12-13T08:32:01.227Z,-4.80
2022-12-13T08:34:28.409Z,-4.80
2022-12-13T08:37:01.191Z,-4.80
2022-12-13T08:39:37.148Z,-4.80
2022-12-13T08:42:17.044Z,-4.80
2022-12-13T08:44:46.566Z,-4.80
2022-12-13T08:47:22.934Z,-4.80
2022-12-13T08:50:02.714Z,-4.80
2022-12-13T08:52:31.995Z,-4.80
2022-12-13T08:55:07.091Z,-4.80
2022-12-13T08:57:36.465Z,-4.70
2022-12-13T09:00:05.254Z,-4.70
2022-12-13T09:02:32.325Z,-4.60
2022-12-13T09:05:07.311Z,-4.60
2022-12-13T09:07:36.283Z,-4.50
2022-12-13T09:10:27.034Z,-4.50
2022-12-13T09:13:01.840Z,-4.50
2022-12-13T09:15:34.226Z,-4.50
2022-12-13T09:18:04.553Z,-4.50
2022-12-13T09:20:41.544Z,-4.40
2022-12-13T09:23:23.329Z,-4.40
2022-12-13T09:26:05.315Z,-4.40
2022-12-13T09:28:35.148Z,-4.30
2022-12-13T09:31:06.168Z,-4.30
2022-12-13T09:33:33.387Z,-4.20
2022-12-13T09:36:15.868Z,-4.20
2022-12-13T09:38:42.910Z,-4.20
2022-12-13T09:41:29.296Z,-4.20
2022-12-13T09:44:06.578Z,-4.20
2022-12-13T09:46:54.800Z,-4.20
2022-12-13T09:49:36.784Z,-4.10
2022-12-13T09:52:10.971Z,-4.10
2022-12-13T09:54:47.754Z,-4.10
2022-12-13T09:57:32.160Z,-4.10
2022-12-13T10:00:04.582Z,-4.00
2022-12-13T10:02:32.418Z,-4.00
2022-12-13T10:05:33.879Z,-3.90
2022-12-13T10:08:13.239Z,-3.90
2022-12-13T10:10:40.260Z,-3.90
2022-12-13T10:13:33.515Z,-3.80
2022-12-13T10:16:14.524Z,-3.70
2022-12-13T10:18:50.463Z,-3.70
2022-12-13T10:21:30.207Z,-3.60
2022-12-13T10:24:25.120Z,-2.90
2022-12-13T10:26:57.030Z,-2.40
2022-12-13T10:29:24.296Z,-2.30
2022-12-13T10:31:52.888Z,-2.30
2022-12-13T10:34:29.547Z,-2.40
2022-12-13T10:36:59.884Z,-2.40
2022-12-13T10:39:40.908Z,-2.40
2022-12-13T10:42:22.740Z,-2.40
2022-12-13T10:45:10.477Z,-2.40
2022-12-13T10:47:37.403Z,-2.40
2022-12-13T10:50:04.490Z,-2.30
2022-12-13T10:52:32.199Z,-2.30
2022-12-13T10:55:02.553Z,-2.30
2022-12-13T10:57:29.372Z,-2.20
2022-12-13T10:59:56.414Z,-2.20
2022-12-13T11:02:37.352Z,-2.20
2022-12-13T11:05:23.268Z,-2.10
2022-12-13T11:07:50.594Z,-2.00
2022-12-13T11:10:27.694Z,-2.00
2022-12-13T11:13:01.580Z,-1.90
2022-12-13T11:15:31.001Z,-1.80
2022-12-13T11:18:02.932Z,-1.80
2022-12-13T11:20:57.315Z,-1.80
2022-12-13T11:23:37.018Z,-1.70
2022-12-13T11:26:10.701Z,-1.70
2022-12-13T11:28:44.744Z,-1.60
2022-12-13T11:31:36.705Z,-1.50
2022-12-13T11:34:19.130Z,-1.50
2022-12-13T11:37:12.215Z,-1.40
2022-12-13T11:39:43.895Z,-1.40
2022-12-13T11:42:21.067Z,-1.30
2022-12-13T11:44:57.391Z,-1.30
2022-12-13T11:47:27.963Z,-1.20
2022-12-13T11:49:56.701Z,-1.20
2022-12-13T11:52:36.029Z,-1.20
2022-12-13T11:55:16.468Z,-1.20
2022-12-13T11:58:01.642Z,-1.10
2022-12-13T12:00:34.382Z,-1.10
2022-12-13T12:03:11.043Z,-1.10
2022-12-13T12:05:38.528Z,-1.00
2022-12-13T12:08:32.715Z,-1.00
2022-12-13T12:11:23.892Z,-0.90
2022-12-13T12:13:55.050Z,-0.90
2022-12-13T12:16:34.048Z,-0.90
2022-12-13T12:19:01.902Z,-0.90
2022-12-13T12:22:14.227Z,-0.80
2022-12-13T12:24:41.646Z,-0.80
2022-12-13T12:27:35.375Z,-0.80
2022-12-13T12:30:02.145Z,-0.70
2022-12-13T12:32:41.311Z,-0.70
2022-12-13T12:35:20.188Z,-0.70
2022-12-13T12:37:54.536Z,-0.70
2022-12-13T12:40:24.589Z,-0.70
2022-12-13T12:43:27.277Z,-0.60
2022-12-13T12:46:06.738Z,-0.60
2022-12-13T12:48:57.040Z,-0.60
2022-12-13T12:52:06.010Z,-0.60
2022-12-13T12:54:41.637Z,-0.60
2022-12-13T12:57:13.295Z,-0.50
2022-12-13T13:00:01.294Z,-0.50
2022-12-13T13:02:39.123Z,-0.50
2022-12-13T13:05:22.793Z,-0.50
2022-12-13T13:07:59.633Z,-0.50
2022-12-13T13:10:27.516Z,-0.50
2022-12-13T13:13:12.717Z,-0.50
2022-12-13T13:15:40.053Z,-0.40
2022-12-13T13:18:42.900Z,-0.40
2022-12-13T13:21:25.920Z,-0.40
2022-12-13T13:24:01.959Z,-0.50
2022-12-13T13:26:34.288Z,-0.40
2022-12-13T13:29:27.244Z,-0.50
2022-12-13T13:32:07.068Z,-0.40
2022-12-13T13:34:37.568Z,-0.40
2022-12-13T13:37:05.745Z,-0.40
2022-12-13T13:39:32.530Z,-0.40
2022-12-13T13:42:14.503Z,-0.40
2022-12-13T13:44:50.401Z,-0.40
2022-12-13T13:47:19.951Z,-0.30
2022-12-13T13:50:06.864Z,-0.40
2022-12-13T13:53:06.575Z,-0.30
2022-12-13T13:55:42.544Z,-0.30
2022-12-13T13:58:28.343Z,-0.30
2022-12-13T14:01:27.421Z,-0.30
2022-12-13T14:04:10.262Z,-0.30
2022-12-13T14:07:04.136Z,-0.30
2022-12-13T14:09:48.235Z,-0.30
2022-12-13T14:12:52.613Z,-0.30
2022-12-13T14:15:49.837Z,-0.30
2022-12-13T14:18:44.960Z,-0.30
2022-12-13T14:21:27.007Z,-0.30
2022-12-13T14:24:05.190Z,-0.30
2022-12-13T14:27:02.337Z,-0.30
2022-12-13T14:29:35.182Z,-0.30
2022-12-13T14:32:02.136Z,-0.30
2022-12-13T14:34:30.606Z,-0.20
2022-12-13T14:36:59.375Z,-0.30
2022-12-13T14:39:26.789Z,-0.20
2022-12-13T14:41:56.680Z,-0.30
2022-12-13T14:44:29.686Z,-0.30
2022-12-13T14:46:59.684Z,-0.30
2022-12-13T14:49:29.207Z,-0.30
2022-12-13T14:52:26.129Z,-0.30
2022-12-13T14:55:04.453Z,-0.30
2022-12-13T14:57:32.378Z,-0.30
2022-12-13T15:00:01.355Z,-0.30
2022-12-13T15:02:31.974Z,-0.30
2022-12-13T15:05:01.420Z,-0.30
2022-12-13T15:07:39.323Z,-0.30
2022-12-13T15:10:21.273Z,-0.30
2022-12-13T15:12:49.580Z,-0.30
2022-12-13T15:15:29.220Z,-0.40
2022-12-13T15:18:36.215Z,-0.40
2022-12-13T15:21:03.065Z,-0.40
2022-12-13T15:23:43.197Z,-0.40
2022-12-13T15:26:29.120Z,-0.40
2022-12-13T15:29:09.674Z,-0.40
2022-12-13T15:31:38.922Z,-0.50
2022-12-13T15:34:34.531Z,-0.50
2022-12-13T15:37:28.444Z,-0.50
2022-12-13T15:39:59.976Z,-0.60
2022-12-13T15:42:35.808Z,-0.60
2022-12-13T15:45:05.983Z,-0.60
2022-12-13T15:47:33.388Z,-0.60
2022-12-13T15:50:02.477Z,-0.70
2022-12-13T15:52:39.127Z,-0.70
2022-12-13T15:55:05.916Z,-0.70
2022-12-13T15:57:35.064Z,-0.70
2022-12-13T16:00:17.253Z,-0.70
2022-12-13T16:03:27.345Z,-0.70
2022-12-13T16:05:58.789Z,-0.70
2022-12-13T16:08:31.234Z,-0.80
2022-12-13T16:10:58.531Z,-0.80
2022-12-13T16:13:30.848Z,-0.80
2022-12-13T16:16:09.532Z,-0.80
2022-12-13T16:18:51.994Z,-0.80
2022-12-13T16:21:19.334Z,-0.90
2022-12-13T16:23:48.474Z,-0.90
2022-12-13T16:26:24.167Z,-0.90
2022-12-13T16:28:51.041Z,-0.90
2022-12-13T16:31:31.537Z,-0.90
2022-12-13T16:33:59.493Z,-0.90
2022-12-13T16:36:26.334Z,-0.90
2022-12-13T16:38:53.160Z,-1.00
2022-12-13T16:41:21.943Z,-1.00
2022-12-13T16:44:01.492Z,-1.00
2022-12-13T16:47:13.210Z,-1.00
2022-12-13T16:49:26.212Z,-1.00
2022-12-13T16:51:53.944Z,-1.10
2022-12-13T16:54:22.147Z,-1.10
2022-12-13T16:56:50.710Z,-1.10
2022-12-13T16:59:19.654Z,-1.10
2022-12-13T17:01:46.819Z,-1.10
2022-12-13T17:04:20.638Z,-1.10
2022-12-13T17:06:54.914Z,-1.20
2022-12-13T17:09:22.933Z,-1.20
2022-12-13T17:11:49.769Z,-1.20
2022-12-13T17:14:16.685Z,-1.20
2022-12-13T17:16:43.636Z,-1.20
2022-12-13T17:19:12.066Z,-1.20
2022-12-13T17:21:38.806Z,-1.20
2022-12-13T17:24:06.041Z,-1.20
2022-12-13T17:26:32.933Z,-1.20
2022-12-13T17:28:59.738Z,-1.20
2022-12-13T17:31:31.803Z,-1.20
2022-12-13T17:34:02.863Z,-1.20
2022-12-13T17:36:31.617Z,-1.30
2022-12-13T17:38:59.014Z,-1.20
2022-12-13T17:41:26.229Z,-1.30
2022-12-13T17:43:52.971Z,-1.30
2022-12-13T17:46:19.836Z,-1.30
2022-12-13T17:48:46.991Z,-1.30
2022-12-13T17:51:14.907Z,-1.30
2022-12-13T17:53:43.171Z,-1.30
2022-12-13T17:56:12.448Z,-1.30
2022-12-13T17:58:40.228Z,-1.40
2022-12-13T18:01:15.816Z,-1.40
2022-12-13T18:03:42.808Z,-1.40
2022-12-13T18:06:10.283Z,-1.40
2022-12-13T18:08:39.060Z,-1.50
2022-12-13T18:11:31.929Z,-1.50
2022-12-13T18:13:58.970Z,-1.50
2022-12-13T18:16:32.106Z,-1.50
2022-12-13T18:19:05.916Z,-1.50
2022-12-13T18:21:32.742Z,-1.50
2022-12-13T18:23:59.901Z,-1.50
2022-12-13T18:26:26.978Z,-1.50
2022-12-13T18:28:53.879Z,-1.50
2022-12-13T18:31:24.104Z,-1.50
2022-12-13T18:33:52.625Z,-1.50
2022-12-13T18:36:21.425Z,-1.50
2022-12-13T18:38:48.633Z,-1.60
2022-12-13T18:41:20.428Z,-1.60
2022-12-13T18:43:54.774Z,-1.60
2022-12-13T18:46:21.908Z,-1.60
2022-12-13T18:48:48.918Z,-1.60
2022-12-13T18:51:15.972Z,-1.60
2022-12-13T18:53:42.792Z,-1.60
2022-12-13T18:56:18.392Z,-1.70
2022-12-13T18:58:47.123Z,-1.70
2022-12-13T19:01:15.623Z,-1.70
2022-12-13T19:03:45.842Z,-1.70
2022-12-13T19:06:18.314Z,-1.70
2022-12-13T19:08:49.450Z,-1.70
2022-12-13T19:11:16.372Z,-1.70
2022-12-13T19:13:43.310Z,-1.70
2022-12-13T19:16:12.391Z,-1.70
2022-12-13T19:18:39.360Z,-1.70
2022-12-13T19:21:07.793Z,-1.80
2022-12-13T19:23:35.220Z,-1.80
2022-12-13T19:26:06.811Z,-1.80
2022-12-13T19:28:34.746Z,-1.80
2022-12-13T19:31:05.822Z,-1.80
2022-12-13T19:33:33.188Z,-1.70
2022-12-13T19:36:00.322Z,-1.80
2022-12-13T19:38:27.227Z,-1.70
2022-12-13T19:40:54.083Z,-1.70
2022-12-13T19:43:21.497Z,-1.70
2022-12-13T19:45:48.419Z,-1.70
2022-12-13T19:48:15.664Z,-1.70
2022-12-13T19:50:42.517Z,-1.70
2022-12-13T19:53:09.334Z,-1.70
2022-12-13T19:55:36.183Z,-1.70
2022-12-13T19:58:03.540Z,-1.80
2022-12-13T20:00:30.888Z,-1.70
2022-12-13T20:02:58.552Z,-1.80
2022-12-13T20:05:26.081Z,-1.80
2022-12-13T20:07:57.918Z,-1.80
2022-12-13T20:10:25.818Z,-1.90
2022-12-13T20:12:52.778Z,-1.80
2022-12-13T20:15:19.692Z,-1.80
2022-12-13T20:17:46.540Z,-1.90
2022-12-13T20:20:13.371Z,-1.90
2022-12-13T20:22:40.190Z,-1.90
2022-12-13T20:25:07.360Z,-1.80
2022-12-13T20:27:34.184Z,-1.80
2022-12-13T20:30:01.009Z,-1.90
2022-12-13T20:32:27.904Z,-1.90
2022-12-13T20:34:55.291Z,-1.90
2022-12-13T20:37:22.363Z,-1.90
2022-12-13T20:39:49.471Z,-1.90
2022-12-13T20:42:16.579Z,-1.90
2022-12-13T20:44:43.481Z,-1.90
2022-12-13T20:47:10.388Z,-1.90
2022-12-13T20:49:37.395Z,-2.00
2022-12-13T20:52:04.418Z,-2.00
2022-12-13T20:54:31.661Z,-2.00
2022-12-13T20:56:58.456Z,-2.00
2022-12-13T20:59:25.419Z,-2.00
2022-12-13T21:01:52.306Z,-2.00
2022-12-13T21:04:19.341Z,-2.00
2022-12-13T21:06:47.620Z,-2.10
2022-12-13T21:09:14.554Z,-2.00
2022-12-13T21:11:46.964Z,-2.00
2022-12-13T21:14:23.489Z,-2.00
2022-12-13T21:17:02.842Z,-2.00
2022-12-13T21:19:39.048Z,-2.00
2022-12-13T21:22:06.711Z,-2.10
2022-12-13T21:24:33.499Z,-2.00
2022-12-13T21:27:00.442Z,-2.00
2022-12-13T21:29:27.232Z,-2.00
2022-12-13T21:31:55.097Z,-2.10
2022-12-13T21:34:22.579Z,-2.10
2022-12-13T21:36:52.259Z,-2.10
2022-12-13T21:39:27.727Z,-2.10
2022-12-13T21:41:55.003Z,-2.10
2022-12-13T21:44:21.933Z,-2.00
2022-12-13T21:49:35.772Z,-2.00
2022-12-13T21:52:02.605Z,-2.10
2022-12-13T21:54:29.434Z,-2.10
2022-12-13T21:57:14.627Z,-2.10
2022-12-13T21:59:41.434Z,-2.20
2022-12-13T22:02:17.021Z,-2.20
2022-12-13T22:04:46.521Z,-2.20
2022-12-13T22:07:17.989Z,-2.20
2022-12-13T22:09:45.265Z,-2.20
2022-12-13T22:12:23.623Z,-2.30
2022-12-13T22:14:51.562Z,-2.30
2022-12-13T22:17:19.526Z,-2.30
2022-12-13T22:19:48.702Z,-2.40
2022-12-13T22:22:17.504Z,-2.40
2022-12-13T22:24:48.461Z,-2.40
2022-12-13T22:27:23.570Z,-2.40
2022-12-13T22:29:52.207Z,-2.30
2022-12-13T22:32:20.041Z,-2.30
2022-12-13T22:34:46.950Z,-2.30
2022-12-13T22:37:13.771Z,-2.40
2022-12-13T22:39:40.522Z,-2.40
2022-12-13T22:42:07.417Z,-2.40
2022-12-13T22:44:34.232Z,-2.40
2022-12-13T22:47:01.109Z,-2.40
2022-12-13T22:49:27.884Z,-2.50
2022-12-13T22:51:54.702Z,-2.50
2022-12-13T22:54:22.498Z,-2.60
2022-12-13T22:56:50.385Z,-2.60
2022-12-13T22:59:17.234Z,-2.70
2022-12-13T23:01:47.348Z,-2.70
2022-12-13T23:04:14.760Z,-2.60
2022-12-13T23:06:41.648Z,-2.60
2022-12-13T23:09:11.549Z,-2.60
2022-12-13T23:11:57.185Z,-2.60
2022-12-13T23:14:31.952Z,-2.60
2022-12-13T23:16:59.843Z,-2.60
2022-12-13T23:19:49.602Z,-2.60
2022-12-13T23:22:13.838Z,-2.60
2022-12-13T23:24:40.628Z,-2.60
2022-12-13T23:27:07.420Z,-2.70
2022-12-13T23:29:34.319Z,-2.70
2022-12-13T23:32:01.130Z,-2.70
2022-12-13T23:34:27.966Z,-2.70
2022-12-13T23:36:54.770Z,-2.70
2022-12-13T23:39:21.689Z,-2.70
2022-12-13T23:41:48.526Z,-2.70
2022-12-13T23:44:15.323Z,-2.70
2022-12-13T23:46:42.104Z,-2.70
2022-12-13T23:49:16.350Z,-2.70
2022-12-13T23:51:43.337Z,-2.70
2022-12-13T23:54:14.960Z,-2.70
2022-12-13T23:56:41.993Z,-2.70
2022-12-13T23:59:08.927Z,-2.70
